sensor_id;sensor_type;location;lat;lon;timestamp;pressure;altitude;pressure_sealevel;temperature;humidity
23241;BME280;11789;53.482;9.862;2024-02-15T00:01:09;101511.44;;;9.52;100.00
23241;BME280;11789;53.482;9.862;2024-02-15T00:03:34;101509.72;;;9.53;100.00
23241;BME280;11789;53.482;9.862;2024-02-15T00:06:01;101511.41;;;9.51;100.00
23241;BME280;11789;53.482;9.862;2024-02-15T00:08:29;101510.56;;;9.50;100.00
23241;BME280;11789;53.482;9.862;2024-02-15T00:10:55;101517.44;;;9.51;100.00
23241;BME280;11789;53.482;9.862;2024-02-15T00:13:20;101513.12;;;9.50;100.00
23241;BME280;11789;53.482;9.862;2024-02-15T00:15:45;101517.44;;;9.51;100.00
23241;BME280;11789;53.482;9.862;2024-02-15T00:18:14;101520.09;;;9.54;100.00
23241;BME280;11789;53.482;9.862;2024-02-15T00:20:39;101523.53;;;9.53;100.00
23241;BME280;11789;53.482;9.862;2024-02-15T00:23:05;101529.56;;;9.55;100.00
23241;BME280;11789;53.482;9.862;2024-02-15T00:25:32;101526.09;;;9.55;100.00
23241;BME280;11789;53.482;9.862;2024-02-15T00:27:58;101529.56;;;9.55;100.00
23241;BME280;11789;53.482;9.862;2024-02-15T00:30:25;101526.91;;;9.52;100.00
23241;BME280;11789;53.482;9.862;2024-02-15T00:32:52;101531.25;;;9.53;100.00
23241;BME280;11789;53.482;9.862;2024-02-15T00:35:17;101529.50;;;9.52;100.00
23241;BME280;11789;53.482;9.862;2024-02-15T00:37:44;101522.66;;;9.54;100.00
23241;BME280;11789;53.482;9.862;2024-02-15T00:40:10;101520.94;;;9.53;100.00
23241;BME280;11789;53.482;9.862;2024-02-15T00:42:36;101519.22;;;9.55;100.00
23241;BME280;11789;53.482;9.862;2024-02-15T00:45:03;101519.22;;;9.55;100.00
23241;BME280;11789;53.482;9.862;2024-02-15T00:47:28;101516.66;;;9.55;100.00
23241;BME280;11789;53.482;9.862;2024-02-15T00:49:54;101525.25;;;9.56;100.00
23241;BME280;11789;53.482;9.862;2024-02-15T00:52:19;101526.97;;;9.57;100.00
23241;BME280;11789;53.482;9.862;2024-02-15T00:54:45;101525.25;;;9.54;100.00
23241;BME280;11789;53.482;9.862;2024-02-15T00:57:11;101527.84;;;9.57;100.00
23241;BME280;11789;53.482;9.862;2024-02-15T00:59:37;101520.97;;;9.56;100.00
23241;BME280;11789;53.482;9.862;2024-02-15T01:02:03;101521.81;;;9.57;100.00
23241;BME280;11789;53.482;9.862;2024-02-15T01:04:29;101518.37;;;9.56;100.00
23241;BME280;11789;53.482;9.862;2024-02-15T01:06:55;101524.44;;;9.58;100.00
23241;BME280;11789;53.482;9.862;2024-02-15T01:09:21;101532.22;;;9.61;100.00
23241;BME280;11789;53.482;9.862;2024-02-15T01:11:47;101526.19;;;9.62;100.00
23241;BME280;11789;53.482;9.862;2024-02-15T01:14:13;101528.84;;;9.66;100.00
23241;BME280;11789;53.482;9.862;2024-02-15T01:16:39;101526.25;;;9.67;100.00
23241;BME280;11789;53.482;9.862;2024-02-15T01:19:04;101533.12;;;9.64;100.00
23241;BME280;11789;53.482;9.862;2024-02-15T01:21:30;101530.56;;;9.67;100.00
23241;BME280;11789;53.482;9.862;2024-02-15T01:23:58;101533.16;;;9.67;100.00
23241;BME280;11789;53.482;9.862;2024-02-15T01:26:26;101537.44;;;9.66;100.00
23241;BME280;11789;53.482;9.862;2024-02-15T01:28:52;101535.72;;;9.67;100.00
23241;BME280;11789;53.482;9.862;2024-02-15T01:31:17;101534.00;;;9.67;100.00
23241;BME280;11789;53.482;9.862;2024-02-15T01:33:44;101527.12;;;9.66;100.00
23241;BME280;11789;53.482;9.862;2024-02-15T01:36:15;101519.38;;;9.65;100.00
23241;BME280;11789;53.482;9.862;2024-02-15T01:38:41;101522.81;;;9.67;100.00
23241;BME280;11789;53.482;9.862;2024-02-15T01:41:07;101528.03;;;9.70;100.00
23241;BME280;11789;53.482;9.862;2024-02-15T01:43:33;101523.75;;;9.72;100.00
23241;BME280;11789;53.482;9.862;2024-02-15T01:45:59;101522.00;;;9.69;100.00
23241;BME280;11789;53.482;9.862;2024-02-15T01:48:29;101527.19;;;9.72;100.00
23241;BME280;11789;53.482;9.862;2024-02-15T01:50:56;101522.03;;;9.72;100.00
23241;BME280;11789;53.482;9.862;2024-02-15T01:53:21;101529.81;;;9.74;100.00
23241;BME280;11789;53.482;9.862;2024-02-15T01:55:47;101518.56;;;9.70;100.00
23241;BME280;11789;53.482;9.862;2024-02-15T01:58:12;101522.03;;;9.72;100.00
23241;BME280;11789;53.482;9.862;2024-02-15T02:00:38;101524.66;;;9.74;100.00
23241;BME280;11789;53.482;9.862;2024-02-15T02:03:05;101519.44;;;9.72;100.00
23241;BME280;11789;53.482;9.862;2024-02-15T02:05:31;101518.59;;;9.72;100.00
23241;BME280;11789;53.482;9.862;2024-02-15T02:07:57;101527.19;;;9.72;100.00
23241;BME280;11789;53.482;9.862;2024-02-15T02:10:29;101521.22;;;9.75;100.00
23241;BME280;11789;53.482;9.862;2024-02-15T02:13:01;101522.09;;;9.75;100.00
23241;BME280;11789;53.482;9.862;2024-02-15T02:15:27;101520.31;;;9.73;100.00
23241;BME280;11789;53.482;9.862;2024-02-15T02:17:54;101523.78;;;9.73;100.00
23241;BME280;11789;53.482;9.862;2024-02-15T02:20:19;101522.88;;;9.71;100.00
23241;BME280;11789;53.482;9.862;2024-02-15T02:22:46;101520.31;;;9.73;100.00
23241;BME280;11789;53.482;9.862;2024-02-15T02:25:13;101521.16;;;9.72;100.00
23241;BME280;11789;53.482;9.862;2024-02-15T02:27:39;101524.59;;;9.71;100.00
23241;BME280;11789;53.482;9.862;2024-02-15T02:30:13;101523.78;;;9.73;100.00
23241;BME280;11789;53.482;9.862;2024-02-15T02:32:46;101522.06;;;9.74;100.00
23241;BME280;11789;53.482;9.862;2024-02-15T02:35:12;101522.91;;;9.73;100.00
23241;BME280;11789;53.482;9.862;2024-02-15T02:37:39;101522.91;;;9.73;100.00
23241;BME280;11789;53.482;9.862;2024-02-15T02:40:09;101531.53;;;9.73;100.00
23241;BME280;11789;53.482;9.862;2024-02-15T02:42:56;101526.38;;;9.75;100.00
23241;BME280;11789;53.482;9.862;2024-02-15T02:45:24;101526.38;;;9.75;100.00
23241;BME280;11789;53.482;9.862;2024-02-15T02:47:50;101520.34;;;9.74;100.00
23241;BME280;11789;53.482;9.862;2024-02-15T02:50:16;101525.53;;;9.74;100.00
23241;BME280;11789;53.482;9.862;2024-02-15T02:52:43;101513.47;;;9.73;100.00
23241;BME280;11789;53.482;9.862;2024-02-15T02:55:09;101515.19;;;9.74;100.00
23241;BME280;11789;53.482;9.862;2024-02-15T02:57:38;101514.34;;;9.77;100.00
23241;BME280;11789;53.482;9.862;2024-02-15T03:00:05;101510.91;;;9.78;100.00
23241;BME280;11789;53.482;9.862;2024-02-15T03:02:34;101519.56;;;9.80;100.00
23241;BME280;11789;53.482;9.862;2024-02-15T03:05:05;101509.22;;;9.80;100.00
23241;BME280;11789;53.482;9.862;2024-02-15T03:07:35;101511.81;;;9.80;100.00
23241;BME280;11789;53.482;9.862;2024-02-15T03:10:01;101522.16;;;9.80;100.00
23241;BME280;11789;53.482;9.862;2024-02-15T03:12:27;101524.75;;;9.81;100.00
23241;BME280;11789;53.482;9.862;2024-02-15T03:14:55;101523.00;;;9.79;100.00
23241;BME280;11789;53.482;9.862;2024-02-15T03:17:20;101529.88;;;9.80;100.00
23241;BME280;11789;53.482;9.862;2024-02-15T03:19:46;101527.31;;;9.80;100.00
23241;BME280;11789;53.482;9.862;2024-02-15T03:22:14;101533.34;;;9.79;100.00
23241;BME280;11789;53.482;9.862;2024-02-15T03:24:39;101528.97;;;9.78;100.00
23241;BME280;11789;53.482;9.862;2024-02-15T03:27:05;101529.03;;;9.79;100.00
23241;BME280;11789;53.482;9.862;2024-02-15T03:29:30;101532.47;;;9.81;100.00
23241;BME280;11789;53.482;9.862;2024-02-15T03:31:56;101541.09;;;9.82;100.00
23241;BME280;11789;53.482;9.862;2024-02-15T03:34:21;101534.22;;;9.82;100.00
23241;BME280;11789;53.482;9.862;2024-02-15T03:36:49;101531.63;;;9.82;100.00
23241;BME280;11789;53.482;9.862;2024-02-15T03:39:19;101541.97;;;9.82;100.00
23241;BME280;11789;53.482;9.862;2024-02-15T03:41:45;101536.84;;;9.84;100.00
23241;BME280;11789;53.482;9.862;2024-02-15T03:44:14;101539.38;;;9.82;100.00
23241;BME280;11789;53.482;9.862;2024-02-15T03:46:40;101539.38;;;9.82;100.00
23241;BME280;11789;53.482;9.862;2024-02-15T03:49:06;101538.56;;;9.85;100.00
23241;BME280;11789;53.482;9.862;2024-02-15T03:51:34;101534.25;;;9.84;100.00
23241;BME280;11789;53.482;9.862;2024-02-15T03:53:59;101546.31;;;9.83;100.00
23241;BME280;11789;53.482;9.862;2024-02-15T03:56:25;101545.47;;;9.86;100.00
23241;BME280;11789;53.482;9.862;2024-02-15T03:58:50;101542.88;;;9.86;100.00
23241;BME280;11789;53.482;9.862;2024-02-15T04:01:16;101544.59;;;9.85;100.00
23241;BME280;11789;53.482;9.862;2024-02-15T04:03:42;101542.88;;;9.84;100.00
23241;BME280;11789;53.482;9.862;2024-02-15T04:06:07;101545.47;;;9.86;100.00
23241;BME280;11789;53.482;9.862;2024-02-15T04:08:35;101550.69;;;9.89;100.00
23241;BME280;11789;53.482;9.862;2024-02-15T04:11:04;101548.91;;;9.86;100.00
23241;BME280;11789;53.482;9.862;2024-02-15T04:13:31;101542.88;;;9.86;100.00
23241;BME280;11789;53.482;9.862;2024-02-15T04:15:57;101544.59;;;9.85;100.00
23241;BME280;11789;53.482;9.862;2024-02-15T04:18:23;101542.00;;;9.84;100.00
23241;BME280;11789;53.482;9.862;2024-02-15T04:20:48;101543.72;;;9.85;100.00
23241;BME280;11789;53.482;9.862;2024-02-15T04:23:14;101551.47;;;9.83;100.00
23241;BME280;11789;53.482;9.862;2024-02-15T04:25:39;101556.66;;;9.86;100.00
23241;BME280;11789;53.482;9.862;2024-02-15T04:28:06;101559.22;;;9.85;100.00
23241;BME280;11789;53.482;9.862;2024-02-15T04:30:34;101569.56;;;9.85;100.00
23241;BME280;11789;53.482;9.862;2024-02-15T04:33:00;101562.66;;;9.84;100.00
23241;BME280;11789;53.482;9.862;2024-02-15T04:35:25;101571.28;;;9.84;100.00
23241;BME280;11789;53.482;9.862;2024-02-15T04:37:53;101579.88;;;9.83;100.00
23241;BME280;11789;53.482;9.862;2024-02-15T04:40:19;101573.00;;;9.84;100.00
23241;BME280;11789;53.482;9.862;2024-02-15T04:42:44;101578.16;;;9.84;100.00
23241;BME280;11789;53.482;9.862;2024-02-15T04:45:12;101580.75;;;9.84;100.00
23241;BME280;11789;53.482;9.862;2024-02-15T04:47:40;101578.19;;;9.87;100.00
23241;BME280;11789;53.482;9.862;2024-02-15T04:50:07;101579.91;;;9.88;100.00
23241;BME280;11789;53.482;9.862;2024-02-15T04:52:33;101583.34;;;9.87;100.00
23241;BME280;11789;53.482;9.862;2024-02-15T04:54:58;101578.19;;;9.87;100.00
23241;BME280;11789;53.482;9.862;2024-02-15T04:57:24;101579.03;;;9.87;100.00
23241;BME280;11789;53.482;9.862;2024-02-15T04:59:53;101579.03;;;9.87;100.00
23241;BME280;11789;53.482;9.862;2024-02-15T05:02:19;101579.91;;;9.88;100.00
23241;BME280;11789;53.482;9.862;2024-02-15T05:04:45;101579.91;;;9.88;100.00
23241;BME280;11789;53.482;9.862;2024-02-15T05:07:10;101584.22;;;9.87;100.00
23241;BME280;11789;53.482;9.862;2024-02-15T05:09:36;101584.22;;;9.87;100.00
23241;BME280;11789;53.482;9.862;2024-02-15T05:12:02;101583.34;;;9.87;100.00
23241;BME280;11789;53.482;9.862;2024-02-15T05:14:28;101589.37;;;9.87;100.00
23241;BME280;11789;53.482;9.862;2024-02-15T05:16:54;101584.22;;;9.87;100.00
23241;BME280;11789;53.482;9.862;2024-02-15T05:19:20;101578.19;;;9.87;100.00
23241;BME280;11789;53.482;9.862;2024-02-15T05:21:46;101573.88;;;9.87;100.00
23241;BME280;11789;53.482;9.862;2024-02-15T05:24:16;101567.00;;;9.88;100.00
23241;BME280;11789;53.482;9.862;2024-02-15T05:26:43;101571.28;;;9.86;100.00
23241;BME280;11789;53.482;9.862;2024-02-15T05:29:12;101575.59;;;9.87;100.00
23241;BME280;11789;53.482;9.862;2024-02-15T05:31:37;101579.91;;;9.88;100.00
23241;BME280;11789;53.482;9.862;2024-02-15T05:34:05;101569.63;;;9.90;100.00
23241;BME280;11789;53.482;9.862;2024-02-15T05:36:33;101567.91;;;9.90;100.00
23241;BME280;11789;53.482;9.862;2024-02-15T05:38:59;101573.06;;;9.90;100.00
23241;BME280;11789;53.482;9.862;2024-02-15T05:41:25;101567.91;;;9.88;100.00
23241;BME280;11789;53.482;9.862;2024-02-15T05:43:51;101567.91;;;9.90;100.00
23241;BME280;11789;53.482;9.862;2024-02-15T05:46:19;101561.88;;;9.90;100.00
23241;BME280;11789;53.482;9.862;2024-02-15T05:48:48;101553.22;;;9.87;100.00
23241;BME280;11789;53.482;9.862;2024-02-15T05:51:14;101567.00;;;9.88;100.00
23241;BME280;11789;53.482;9.862;2024-02-15T05:53:39;101566.19;;;9.89;100.00
23241;BME280;11789;53.482;9.862;2024-02-15T05:56:07;101567.91;;;9.90;100.00
23241;BME280;11789;53.482;9.862;2024-02-15T05:58:32;101565.31;;;9.90;100.00
23241;BME280;11789;53.482;9.862;2024-02-15T06:00:59;101567.06;;;9.93;100.00
23241;BME280;11789;53.482;9.862;2024-02-15T06:03:28;101557.56;;;9.90;100.00
23241;BME280;11789;53.482;9.862;2024-02-15T06:05:54;101569.56;;;9.88;100.00
23241;BME280;11789;53.482;9.862;2024-02-15T06:08:27;101571.34;;;9.89;100.00
23241;BME280;11789;53.482;9.862;2024-02-15T06:10:55;101581.66;;;9.89;100.00
23241;BME280;11789;53.482;9.862;2024-02-15T06:13:22;101578.19;;;9.87;100.00
23241;BME280;11789;53.482;9.862;2024-02-15T06:15:48;101573.94;;;9.91;100.00
23241;BME280;11789;53.482;9.862;2024-02-15T06:18:21;101576.53;;;9.92;100.00
23241;BME280;11789;53.482;9.862;2024-02-15T06:20:50;101574.00;;;9.94;100.00
23241;BME280;11789;53.482;9.862;2024-02-15T06:23:19;101571.34;;;9.92;100.00
23241;BME280;11789;53.482;9.862;2024-02-15T06:25:46;101577.38;;;9.93;100.00
23241;BME280;11789;53.482;9.862;2024-02-15T06:28:13;101577.38;;;9.93;100.00
23241;BME280;11789;53.482;9.862;2024-02-15T06:30:46;101579.97;;;9.91;100.00
23241;BME280;11789;53.482;9.862;2024-02-15T06:33:30;101581.75;;;9.95;100.00
23241;BME280;11789;53.482;9.862;2024-02-15T06:36:14;101574.84;;;9.94;100.00
23241;BME280;11789;53.482;9.862;2024-02-15T06:38:58;101573.09;;;9.93;100.00
23241;BME280;11789;53.482;9.862;2024-02-15T06:41:42;101583.47;;;9.96;100.00
23241;BME280;11789;53.482;9.862;2024-02-15T06:44:07;101582.59;;;9.94;100.00
23241;BME280;11789;53.482;9.862;2024-02-15T06:46:33;101569.72;;;9.97;100.00
23241;BME280;11789;53.482;9.862;2024-02-15T06:48:58;101574.00;;;9.97;100.00
23241;BME280;11789;53.482;9.862;2024-02-15T06:51:24;101576.59;;;9.97;100.00
23241;BME280;11789;53.482;9.862;2024-02-15T06:53:50;101576.59;;;9.98;100.00
23241;BME280;11789;53.482;9.862;2024-02-15T06:56:16;101576.59;;;9.98;100.00
23241;BME280;11789;53.482;9.862;2024-02-15T06:58:45;101574.88;;;9.97;100.00
23241;BME280;11789;53.482;9.862;2024-02-15T07:01:11;101570.56;;;9.95;100.00
23241;BME280;11789;53.482;9.862;2024-02-15T07:03:38;101574.00;;;9.95;100.00
23241;BME280;11789;53.482;9.862;2024-02-15T07:06:04;101575.72;;;9.96;100.00
23241;BME280;11789;53.482;9.862;2024-02-15T07:08:31;101573.16;;;9.96;100.00
23241;BME280;11789;53.482;9.862;2024-02-15T07:10:56;101576.59;;;9.95;100.00
23241;BME280;11789;53.482;9.862;2024-02-15T07:13:22;101581.78;;;9.98;100.00
23241;BME280;11789;53.482;9.862;2024-02-15T07:15:48;101581.78;;;9.98;100.00
23241;BME280;11789;53.482;9.862;2024-02-15T07:18:15;101584.34;;;9.97;100.00
23241;BME280;11789;53.482;9.862;2024-02-15T07:20:45;101577.50;;;9.99;100.00
23241;BME280;11789;53.482;9.862;2024-02-15T07:23:10;101580.09;;;10.00;100.00
23241;BME280;11789;53.482;9.862;2024-02-15T07:25:36;101580.09;;;10.00;100.00
23241;BME280;11789;53.482;9.862;2024-02-15T07:28:01;101585.28;;;10.02;100.00
23241;BME280;11789;53.482;9.862;2024-02-15T07:30:27;101581.81;;;10.03;100.00
23241;BME280;11789;53.482;9.862;2024-02-15T07:32:52;101577.56;;;10.05;100.00
23241;BME280;11789;53.482;9.862;2024-02-15T07:35:18;101580.22;;;10.09;100.00
23241;BME280;11789;53.482;9.862;2024-02-15T07:37:52;101581.09;;;10.11;100.00
23241;BME280;11789;53.482;9.862;2024-02-15T07:40:19;101575.91;;;10.11;100.00
23241;BME280;11789;53.482;9.862;2024-02-15T07:42:47;101581.09;;;10.11;100.00
23241;BME280;11789;53.482;9.862;2024-02-15T07:45:12;101581.94;;;10.10;100.00
23241;BME280;11789;53.482;9.862;2024-02-15T07:47:38;101580.22;;;10.11;100.00
23241;BME280;11789;53.482;9.862;2024-02-15T07:50:04;101581.94;;;10.12;100.00
23241;BME280;11789;53.482;9.862;2024-02-15T07:52:30;101578.50;;;10.11;100.00
23241;BME280;11789;53.482;9.862;2024-02-15T07:54:56;101582.81;;;10.12;100.00
23241;BME280;11789;53.482;9.862;2024-02-15T07:57:21;101589.69;;;10.10;100.00
23241;BME280;11789;53.482;9.862;2024-02-15T07:59:48;101597.47;;;10.13;100.00
23241;BME280;11789;53.482;9.862;2024-02-15T08:02:14;101591.47;;;10.14;100.00
23241;BME280;11789;53.482;9.862;2024-02-15T08:04:43;101597.53;;;10.17;100.00
23241;BME280;11789;53.482;9.862;2024-02-15T08:07:10;101604.41;;;10.18;100.00
23241;BME280;11789;53.482;9.862;2024-02-15T08:09:37;101600.97;;;10.17;100.00
23241;BME280;11789;53.482;9.862;2024-02-15T08:12:03;101594.94;;;10.18;100.00
23241;BME280;11789;53.482;9.862;2024-02-15T08:14:28;101587.25;;;10.21;100.00
23241;BME280;11789;53.482;9.862;2024-02-15T08:16:54;101600.16;;;10.21;100.00
23241;BME280;11789;53.482;9.862;2024-02-15T08:19:21;101592.41;;;10.21;100.00
23241;BME280;11789;53.482;9.862;2024-02-15T08:21:48;101597.59;;;10.23;100.00
23241;BME280;11789;53.482;9.862;2024-02-15T08:24:15;101601.88;;;10.21;100.00
23241;BME280;11789;53.482;9.862;2024-02-15T08:26:42;101601.88;;;10.22;100.00
23241;BME280;11789;53.482;9.862;2024-02-15T08:29:08;101600.25;;;10.26;100.00
23241;BME280;11789;53.482;9.862;2024-02-15T08:31:35;101587.34;;;10.26;100.00
23241;BME280;11789;53.482;9.862;2024-02-15T08:34:01;101578.78;;;10.30;100.00
23241;BME280;11789;53.482;9.862;2024-02-15T08:36:27;101583.09;;;10.31;100.00
23241;BME280;11789;53.482;9.862;2024-02-15T08:38:52;101581.38;;;10.33;100.00
23241;BME280;11789;53.482;9.862;2024-02-15T08:41:19;101579.72;;;10.38;100.00
23241;BME280;11789;53.482;9.862;2024-02-15T08:43:46;101593.53;;;10.40;100.00
23241;BME280;11789;53.482;9.862;2024-02-15T08:46:14;101587.50;;;10.41;100.00
23241;BME280;11789;53.482;9.862;2024-02-15T08:48:39;101578.94;;;10.45;100.00
23241;BME280;11789;53.482;9.862;2024-02-15T08:51:06;101579.81;;;10.47;100.00
23241;BME280;11789;53.482;9.862;2024-02-15T08:53:34;101582.44;;;10.50;100.00
23241;BME280;11789;53.482;9.862;2024-02-15T08:56:05;101577.28;;;10.53;100.00
23241;BME280;11789;53.482;9.862;2024-02-15T08:58:31;101576.47;;;10.54;100.00
23241;BME280;11789;53.482;9.862;2024-02-15T09:00:57;101577.34;;;10.55;100.00
23241;BME280;11789;53.482;9.862;2024-02-15T09:03:23;101578.22;;;10.57;100.00
23241;BME280;11789;53.482;9.862;2024-02-15T09:05:49;101573.91;;;10.59;100.00
23241;BME280;11789;53.482;9.862;2024-02-15T09:08:14;101574.81;;;10.61;100.00
23241;BME280;11789;53.482;9.862;2024-02-15T09:10:41;101565.34;;;10.61;100.00
23241;BME280;11789;53.482;9.862;2024-02-15T09:13:08;101578.25;;;10.61;100.00
23241;BME280;11789;53.482;9.862;2024-02-15T09:15:33;101585.16;;;10.64;100.00
23241;BME280;11789;53.482;9.862;2024-02-15T09:17:59;101585.16;;;10.64;100.00
23241;BME280;11789;53.482;9.862;2024-02-15T09:20:24;101584.31;;;10.63;100.00
23241;BME280;11789;53.482;9.862;2024-02-15T09:22:54;101576.53;;;10.62;100.00
23241;BME280;11789;53.482;9.862;2024-02-15T09:25:20;101573.97;;;10.63;100.00
23241;BME280;11789;53.482;9.862;2024-02-15T09:27:49;101575.66;;;10.61;100.00
23241;BME280;11789;53.482;9.862;2024-02-15T09:30:16;101573.97;;;10.63;100.00
23241;BME280;11789;53.482;9.862;2024-02-15T09:32:42;101579.16;;;10.65;100.00
23241;BME280;11789;53.482;9.862;2024-02-15T09:35:09;101575.72;;;10.66;100.00
23241;BME280;11789;53.482;9.862;2024-02-15T09:37:38;101578.31;;;10.66;100.00
23241;BME280;11789;53.482;9.862;2024-02-15T09:40:13;101575.72;;;10.64;100.00
23241;BME280;11789;53.482;9.862;2024-02-15T09:42:40;101573.97;;;10.63;100.00
23241;BME280;11789;53.482;9.862;2024-02-15T09:45:07;101583.44;;;10.63;100.00
23241;BME280;11789;53.482;9.862;2024-02-15T09:47:37;101588.59;;;10.63;100.00
23241;BME280;11789;53.482;9.862;2024-02-15T09:50:10;101587.75;;;10.62;100.00
23241;BME280;11789;53.482;9.862;2024-02-15T09:52:38;101580.00;;;10.64;100.00
23241;BME280;11789;53.482;9.862;2024-02-15T09:55:04;101584.31;;;10.63;100.00
23241;BME280;11789;53.482;9.862;2024-02-15T09:57:30;101581.72;;;10.63;100.00
23241;BME280;11789;53.482;9.862;2024-02-15T10:00:00;101579.16;;;10.67;100.00
23241;BME280;11789;53.482;9.862;2024-02-15T10:02:29;101579.22;;;10.70;100.00
23241;BME280;11789;53.482;9.862;2024-02-15T10:04:56;101587.84;;;10.73;100.00
23241;BME280;11789;53.482;9.862;2024-02-15T10:07:25;101592.16;;;10.74;100.00
23241;BME280;11789;53.482;9.862;2024-02-15T10:13:33;101577.56;;;10.76;100.00
23241;BME280;11789;53.482;9.862;2024-02-15T10:15:59;101591.38;;;10.80;100.00
23241;BME280;11789;53.482;9.862;2024-02-15T10:18:24;101586.22;;;10.83;100.00
23241;BME280;11789;53.482;9.862;2024-02-15T10:20:59;101583.69;;;10.86;100.00
23241;BME280;11789;53.482;9.862;2024-02-15T10:23:24;101586.28;;;10.86;100.00
23241;BME280;11789;53.482;9.862;2024-02-15T10:25:50;101577.69;;;10.90;100.00
23241;BME280;11789;53.482;9.862;2024-02-15T10:28:22;101586.31;;;10.92;100.00
23241;BME280;11789;53.482;9.862;2024-02-15T10:30:52;101587.19;;;10.94;100.00
23241;BME280;11789;53.482;9.862;2024-02-15T10:33:28;101582.91;;;10.98;100.00
23241;BME280;11789;53.482;9.862;2024-02-15T10:36:08;101581.19;;;10.98;100.00
23241;BME280;11789;53.482;9.862;2024-02-15T10:38:34;101572.63;;;11.02;100.00
23241;BME280;11789;53.482;9.862;2024-02-15T10:41:05;101570.03;;;11.04;100.00
23241;BME280;11789;53.482;9.862;2024-02-15T10:43:32;101565.75;;;11.07;100.00
23241;BME280;11789;53.482;9.862;2024-02-15T10:45:58;101565.75;;;11.09;100.00
23241;BME280;11789;53.482;9.862;2024-02-15T10:48:24;101572.69;;;11.11;100.00
23241;BME280;11789;53.482;9.862;2024-02-15T10:50:51;101569.25;;;11.12;100.00
23241;BME280;11789;53.482;9.862;2024-02-15T10:53:28;101563.22;;;11.13;100.00
23241;BME280;11789;53.482;9.862;2024-02-15T10:58:31;101564.06;;;11.14;100.00
23241;BME280;11789;53.482;9.862;2024-02-15T11:01:00;101559.81;;;11.16;100.00
23241;BME280;11789;53.482;9.862;2024-02-15T11:03:48;101559.75;;;11.14;100.00
23241;BME280;11789;53.482;9.862;2024-02-15T11:06:18;101560.62;;;11.15;100.00
23241;BME280;11789;53.482;9.862;2024-02-15T11:08:47;101557.19;;;11.14;100.00
23241;BME280;11789;53.482;9.862;2024-02-15T11:11:14;101554.63;;;11.16;100.00
23241;BME280;11789;53.482;9.862;2024-02-15T11:13:40;101552.00;;;11.14;100.00
23241;BME280;11789;53.482;9.862;2024-02-15T11:16:08;101552.88;;;11.15;100.00
23241;BME280;11789;53.482;9.862;2024-02-15T11:18:49;101548.56;;;11.12;100.00
23241;BME280;11789;53.482;9.862;2024-02-15T11:21:17;101551.13;;;11.11;100.00
23241;BME280;11789;53.482;9.862;2024-02-15T11:23:45;101551.97;;;11.08;100.00
23241;BME280;11789;53.482;9.862;2024-02-15T11:26:43;101547.66;;;11.07;100.00
23241;BME280;11789;53.482;9.862;2024-02-15T11:29:50;101546.78;;;11.05;100.00
23241;BME280;11789;53.482;9.862;2024-02-15T11:35:13;101535.53;;;11.02;100.00
23241;BME280;11789;53.482;9.862;2024-02-15T11:43:07;101531.13;;;10.93;100.00
23241;BME280;11789;53.482;9.862;2024-02-15T11:45:34;101532.00;;;10.92;100.00
23241;BME280;11789;53.482;9.862;2024-02-15T11:48:14;101523.38;;;10.93;100.00
23241;BME280;11789;53.482;9.862;2024-02-15T11:50:40;101526.81;;;10.92;100.00
23241;BME280;11789;53.482;9.862;2024-02-15T11:53:07;101523.38;;;10.90;100.00
23241;BME280;11789;53.482;9.862;2024-02-15T11:55:36;101525.06;;;10.89;100.00
23241;BME280;11789;53.482;9.862;2024-02-15T11:58:03;101518.19;;;10.90;100.00
23241;BME280;11789;53.482;9.862;2024-02-15T12:00:32;101525.97;;;10.91;100.00
23241;BME280;11789;53.482;9.862;2024-02-15T12:03:17;101515.63;;;10.91;100.00
23241;BME280;11789;53.482;9.862;2024-02-15T12:06:02;101515.59;;;10.90;100.00
23241;BME280;11789;53.482;9.862;2024-02-15T12:08:52;101509.56;;;10.91;100.00
23241;BME280;11789;53.482;9.862;2024-02-15T12:11:36;101513.88;;;10.92;100.00
23241;BME280;11789;53.482;9.862;2024-02-15T12:14:21;101511.28;;;10.92;100.00
23241;BME280;11789;53.482;9.862;2024-02-15T12:17:25;101511.28;;;10.90;100.00
23241;BME280;11789;53.482;9.862;2024-02-15T12:20:09;101516.47;;;10.90;100.00
23241;BME280;11789;53.482;9.862;2024-02-15T12:22:43;101511.25;;;10.89;100.00
23241;BME280;11789;53.482;9.862;2024-02-15T12:25:14;101506.09;;;10.89;100.00
23241;BME280;11789;53.482;9.862;2024-02-15T12:27:40;101507.81;;;10.87;100.00
23241;BME280;11789;53.482;9.862;2024-02-15T12:30:12;101505.19;;;10.84;100.00
23241;BME280;11789;53.482;9.862;2024-02-15T12:32:39;101502.62;;;10.87;100.00
23241;BME280;11789;53.482;9.862;2024-02-15T12:35:15;101501.78;;;10.85;100.00
23241;BME280;11789;53.482;9.862;2024-02-15T12:38:08;101502.62;;;10.85;100.00
23241;BME280;11789;53.482;9.862;2024-02-15T12:40:35;101503.50;;;10.86;100.00
23241;BME280;11789;53.482;9.862;2024-02-15T12:43:02;101499.19;;;10.86;100.00
23241;BME280;11789;53.482;9.862;2024-02-15T12:45:31;101494.00;;;10.86;100.00
23241;BME280;11789;53.482;9.862;2024-02-15T12:47:57;101494.87;;;10.88;100.00
23241;BME280;11789;53.482;9.862;2024-02-15T12:50:30;101496.62;;;10.91;100.00
23241;BME280;11789;53.482;9.862;2024-02-15T12:52:56;101486.28;;;10.94;100.00
23241;BME280;11789;53.482;9.862;2024-02-15T12:55:35;101493.19;;;10.94;100.00
23241;BME280;11789;53.482;9.862;2024-02-15T12:58:02;101482.88;;;10.95;100.00
23241;BME280;11789;53.482;9.862;2024-02-15T13:00:34;101488.03;;;10.94;100.00
23241;BME280;11789;53.482;9.862;2024-02-15T13:03:06;101483.69;;;10.91;100.00
23241;BME280;11789;53.482;9.862;2024-02-15T13:05:35;101487.16;;;10.93;100.00